createdAt,value
2023-02-09T00:01:30.921Z,43.17
2023-02-09T00:03:59.282Z,53.77
2023-02-09T00:06:27.142Z,46.50
2023-02-09T00:08:54.342Z,47.03
2023-02-09T00:11:46.309Z,45.60
2023-02-09T00:14:16.179Z,45.83
2023-02-09T00:16:43.493Z,39.97
2023-02-09T00:19:12.472Z,39.70
2023-02-09T00:21:40.618Z,42.23
2023-02-09T00:24:10.677Z,47.23
2023-02-09T00:26:37.901Z,37.60
2023-02-09T00:29:05.030Z,42.63
2023-02-09T00:31:32.170Z,43.00
2023-02-09T00:34:00.142Z,44.90
2023-02-09T00:36:28.314Z,40.40
2023-02-09T00:38:55.224Z,40.13
2023-02-09T00:41:42.338Z,40.33
2023-02-09T00:44:11.048Z,43.63
2023-02-09T00:46:38.112Z,40.63
2023-02-09T00:49:05.543Z,40.83
2023-02-09T00:51:32.844Z,42.70
2023-02-09T00:54:01.886Z,47.07
2023-02-09T00:56:28.772Z,45.60
2023-02-09T00:58:55.705Z,44.83
2023-02-09T01:01:22.629Z,42.13
2023-02-09T01:03:49.559Z,42.17
2023-02-09T01:06:16.466Z,38.73
2023-02-09T01:08:43.446Z,43.97
2023-02-09T01:11:15.400Z,38.53
2023-02-09T01:13:44.141Z,38.97
2023-02-09T01:16:17.480Z,41.00
2023-02-09T01:18:45.395Z,39.60
2023-02-09T01:21:13.927Z,37.57
2023-02-09T01:23:40.837Z,43.00
2023-02-09T01:26:09.331Z,35.80
2023-02-09T01:28:37.029Z,43.50
2023-02-09T01:31:05.853Z,38.23
2023-02-09T01:33:33.243Z,44.43
2023-02-09T01:36:04.874Z,34.20
2023-02-09T01:38:31.774Z,36.30
2023-02-09T01:40:58.655Z,42.60
2023-02-09T01:43:25.596Z,39.33
2023-02-09T01:45:55.219Z,40.80
2023-02-09T01:48:28.654Z,36.63
2023-02-09T01:50:59.734Z,40.77
2023-02-09T01:53:27.498Z,40.97
2023-02-09T01:56:05.624Z,45.13
2023-02-09T01:58:33.423Z,38.97
2023-02-09T02:01:03.764Z,48.83
2023-02-09T02:03:32.089Z,39.80
2023-02-09T02:06:19.670Z,35.27
2023-02-09T02:08:58.092Z,43.73
2023-02-09T02:11:28.219Z,42.67
2023-02-09T02:13:57.954Z,36.40
2023-02-09T02:17:21.352Z,42.63
2023-02-09T02:20:39.161Z,40.27
2023-02-09T02:23:43.177Z,37.87
2023-02-09T02:27:07.206Z,42.40
2023-02-09T02:29:47.045Z,41.63
2023-02-09T02:32:22.548Z,33.10
2023-02-09T02:35:19.108Z,35.07
2023-02-09T02:38:03.829Z,42.70
2023-02-09T02:41:19.167Z,32.47
2023-02-09T02:44:06.527Z,39.97
2023-02-09T02:46:45.349Z,39.20
2023-02-09T02:49:26.505Z,38.00
2023-02-09T02:51:58.839Z,31.87
2023-02-09T02:54:32.811Z,40.00
2023-02-09T02:57:06.987Z,32.73
2023-02-09T02:59:41.909Z,41.10
2023-02-09T03:02:31.618Z,34.30
2023-02-09T03:05:00.424Z,33.20
2023-02-09T03:07:27.348Z,34.40
2023-02-09T03:09:56.801Z,37.80
2023-02-09T03:12:52.756Z,43.27
2023-02-09T03:15:49.592Z,32.77
2023-02-09T03:19:23.352Z,38.60
2023-02-09T03:21:58.115Z,38.60
2023-02-09T03:24:59.879Z,42.33
2023-02-09T03:27:40.609Z,35.83
2023-02-09T03:30:10.810Z,36.13
2023-02-09T03:32:40.439Z,39.77
2023-02-09T03:35:11.073Z,39.40
2023-02-09T03:37:38.183Z,42.03
2023-02-09T03:40:05.959Z,40.93
2023-02-09T03:42:32.865Z,34.73
2023-02-09T03:44:59.783Z,29.50
2023-02-09T03:47:26.723Z,31.20
2023-02-09T03:49:53.623Z,34.00
2023-02-09T03:52:20.517Z,28.00
2023-02-09T03:54:47.871Z,31.50
2023-02-09T03:57:14.930Z,35.20
2023-02-09T03:59:42.035Z,34.53
2023-02-09T04:02:09.966Z,37.07
2023-02-09T04:04:37.329Z,38.97
2023-02-09T04:07:04.762Z,30.93
2023-02-09T04:09:31.683Z,34.90
2023-02-09T04:11:58.572Z,32.03
2023-02-09T04:14:25.512Z,31.70
2023-02-09T04:16:52.411Z,36.27
2023-02-09T04:19:19.342Z,28.00
2023-02-09T04:21:46.211Z,37.47
2023-02-09T04:24:13.124Z,33.80
2023-02-09T04:26:40.042Z,40.03
2023-02-09T04:29:07.012Z,27.27
2023-02-09T04:31:34.971Z,29.23
2023-02-09T04:34:02.185Z,30.60
2023-02-09T04:36:29.176Z,37.13
2023-02-09T04:38:56.149Z,34.57
2023-02-09T04:41:23.067Z,31.80
2023-02-09T04:43:50.777Z,38.70
2023-02-09T04:46:19.096Z,30.80
2023-02-09T04:48:46.495Z,29.80
2023-02-09T04:51:13.582Z,30.80
2023-02-09T04:53:40.509Z,31.33
2023-02-09T04:56:07.409Z,34.90
2023-02-09T04:58:53.244Z,29.13
2023-02-09T05:01:24.335Z,31.17
2023-02-09T05:03:51.841Z,34.67
2023-02-09T05:06:19.406Z,31.17
2023-02-09T05:08:46.398Z,35.47
2023-02-09T05:11:13.313Z,33.10
2023-02-09T05:13:40.212Z,26.23
2023-02-09T05:16:09.598Z,36.73
2023-02-09T05:18:36.745Z,32.43
2023-02-09T05:21:04.562Z,33.53
2023-02-09T05:23:31.652Z,33.67
2023-02-09T05:25:58.663Z,28.30
2023-02-09T05:28:25.963Z,29.07
2023-02-09T05:30:55.822Z,29.27
2023-02-09T05:33:25.446Z,33.40
2023-02-09T05:35:53.865Z,35.00
2023-02-09T05:38:20.752Z,27.23
2023-02-09T05:40:47.949Z,34.30
2023-02-09T05:43:14.997Z,30.63
2023-02-09T05:45:41.951Z,32.27
2023-02-09T05:48:08.885Z,28.60
2023-02-09T05:50:35.985Z,45.57
2023-02-09T05:53:08.216Z,34.63
2023-02-09T05:55:35.115Z,44.00
2023-02-09T05:58:01.992Z,32.13
2023-02-09T06:00:29.914Z,27.40
2023-02-09T06:02:58.501Z,29.17
2023-02-09T06:05:26.088Z,33.37
2023-02-09T06:07:53.017Z,29.80
2023-02-09T06:10:20.288Z,32.50
2023-02-09T06:12:47.539Z,34.67
2023-02-09T06:15:17.887Z,37.73
2023-02-09T06:17:45.013Z,36.27
2023-02-09T06:20:12.286Z,32.97
2023-02-09T06:22:39.189Z,32.70
2023-02-09T06:25:06.491Z,33.10
2023-02-09T06:27:33.359Z,40.03
2023-02-09T06:30:00.347Z,36.77
2023-02-09T06:32:27.226Z,36.90
2023-02-09T06:34:54.149Z,36.30
2023-02-09T06:37:21.066Z,38.33
2023-02-09T06:39:47.970Z,33.10
2023-02-09T06:42:14.860Z,36.70
2023-02-09T06:44:41.759Z,30.30
2023-02-09T06:47:08.633Z,31.60
2023-02-09T06:49:35.529Z,31.57
2023-02-09T06:52:02.577Z,36.33
2023-02-09T06:54:29.484Z,42.77
2023-02-09T06:56:56.440Z,42.87
2023-02-09T06:59:23.327Z,34.50
2023-02-09T07:01:54.642Z,38.97
2023-02-09T07:04:22.257Z,35.33
2023-02-09T07:06:49.100Z,38.17
2023-02-09T07:09:15.993Z,32.57
2023-02-09T07:11:43.723Z,35.50
2023-02-09T07:14:10.641Z,34.43
2023-02-09T07:16:37.547Z,35.90
2023-02-09T07:19:04.488Z,39.80
2023-02-09T07:21:31.378Z,41.13
2023-02-09T07:23:58.299Z,35.93
2023-02-09T07:26:25.302Z,33.07
2023-02-09T07:28:52.178Z,32.30
2023-02-09T07:31:19.425Z,35.53
2023-02-09T07:33:46.743Z,35.13
2023-02-09T07:36:17.993Z,27.70
2023-02-09T07:38:45.721Z,32.53
2023-02-09T07:41:19.597Z,34.47
2023-02-09T07:43:47.383Z,34.93
2023-02-09T07:46:17.756Z,34.20
2023-02-09T07:48:44.685Z,32.17
2023-02-09T07:51:17.067Z,35.07
2023-02-09T07:53:44.014Z,31.80
2023-02-09T07:56:10.879Z,39.67
2023-02-09T07:58:37.797Z,31.70
2023-02-09T08:01:08.235Z,33.53
2023-02-09T08:03:36.095Z,41.90
2023-02-09T08:06:19.608Z,39.67
2023-02-09T08:08:49.004Z,36.00
2023-02-09T08:11:27.786Z,35.00
2023-02-09T08:13:56.825Z,35.70
2023-02-09T08:16:29.126Z,34.60
2023-02-09T08:19:14.286Z,37.93
2023-02-09T08:21:45.439Z,33.93
2023-02-09T08:24:14.430Z,33.40
2023-02-09T08:26:41.857Z,37.23
2023-02-09T08:29:10.684Z,36.63
2023-02-09T08:31:37.830Z,36.10
2023-02-09T08:34:04.875Z,36.43
2023-02-09T08:36:32.188Z,33.70
2023-02-09T08:38:59.100Z,33.17
2023-02-09T08:41:26.000Z,35.90
2023-02-09T08:43:52.934Z,48.00
2023-02-09T08:46:19.983Z,47.17
2023-02-09T08:48:47.602Z,34.27
2023-02-09T08:51:15.919Z,34.37
2023-02-09T08:53:43.402Z,40.67
2023-02-09T08:56:10.384Z,46.07
2023-02-09T08:58:37.311Z,38.73
2023-02-09T09:01:05.389Z,34.87
2023-02-09T09:03:33.121Z,34.50
2023-02-09T09:06:02.703Z,43.20
2023-02-09T09:08:31.049Z,37.27
2023-02-09T09:10:58.587Z,38.77
2023-02-09T09:13:25.963Z,36.90
2023-02-09T09:15:55.235Z,35.43
2023-02-09T09:18:24.391Z,41.40
2023-02-09T09:20:51.720Z,34.00
2023-02-09T09:23:18.990Z,34.67
2023-02-09T09:25:46.457Z,41.10
2023-02-09T09:28:13.598Z,40.40
2023-02-09T09:30:40.501Z,33.27
2023-02-09T09:33:07.627Z,42.73
2023-02-09T09:35:34.574Z,41.70
2023-02-09T09:38:01.676Z,38.20
2023-02-09T09:40:33.485Z,40.57
2023-02-09T09:43:08.198Z,42.37
2023-02-09T09:45:38.677Z,33.17
2023-02-09T09:48:17.160Z,37.63
2023-02-09T09:50:44.738Z,42.30
2023-02-09T09:53:32.998Z,37.70
2023-02-09T09:56:07.524Z,43.03
2023-02-09T09:58:35.981Z,46.10
2023-02-09T10:01:02.929Z,38.10
2023-02-09T10:03:29.826Z,40.00
2023-02-09T10:06:02.200Z,34.90
2023-02-09T10:08:45.574Z,38.83
2023-02-09T10:11:17.025Z,33.27
2023-02-09T10:13:50.197Z,39.13
2023-02-09T10:16:34.399Z,41.80
2023-02-09T10:19:06.699Z,38.40
2023-02-09T10:21:36.077Z,41.83
2023-02-09T10:24:28.297Z,34.30
2023-02-09T10:27:14.476Z,36.97
2023-02-09T10:29:42.133Z,40.43
2023-02-09T10:32:15.579Z,34.20
2023-02-09T10:34:49.742Z,31.80
2023-02-09T10:37:43.825Z,42.17
2023-02-09T10:40:34.467Z,34.97
2023-02-09T10:43:06.812Z,31.90
2023-02-09T10:45:43.358Z,43.10
2023-02-09T10:48:13.160Z,32.50
2023-02-09T10:50:58.046Z,29.73
2023-02-09T10:53:38.826Z,56.17
2023-02-09T10:56:18.718Z,56.23
2023-02-09T10:58:53.764Z,43.93
2023-02-09T11:01:26.065Z,44.07
2023-02-09T11:04:03.350Z,36.60
2023-02-09T11:06:44.278Z,34.30
2023-02-09T11:09:20.516Z,37.47
2023-02-09T11:11:47.435Z,29.03
2023-02-09T11:14:17.529Z,35.43
2023-02-09T11:17:29.300Z,34.83
2023-02-09T11:20:17.577Z,37.67
2023-02-09T11:23:31.242Z,31.77
2023-02-09T11:26:10.442Z,29.63
2023-02-09T11:29:03.816Z,37.50
2023-02-09T11:31:47.101Z,32.30
2023-02-09T11:34:50.821Z,38.60
2023-02-09T11:38:01.927Z,32.90
2023-02-09T11:40:40.946Z,35.20
2023-02-09T11:43:26.624Z,30.07
2023-02-09T11:46:03.726Z,33.33
2023-02-09T11:49:01.926Z,34.63
2023-02-09T11:51:30.972Z,35.27
2023-02-09T11:54:24.441Z,33.40
2023-02-09T11:57:01.157Z,30.00
2023-02-09T11:59:43.804Z,32.37
2023-02-09T12:02:52.154Z,34.63
2023-02-09T12:05:21.035Z,31.20
2023-02-09T12:08:26.718Z,32.50
2023-02-09T12:11:20.421Z,35.53
2023-02-09T12:14:30.088Z,29.10
2023-02-09T12:17:46.950Z,30.33
2023-02-09T12:20:36.215Z,34.23
2023-02-09T12:23:14.831Z,33.13
2023-02-09T12:25:59.934Z,31.90
2023-02-09T12:28:32.648Z,28.23
2023-02-09T12:31:17.069Z,29.93
2023-02-09T12:33:47.176Z,38.73
2023-02-09T12:36:14.055Z,33.53
2023-02-09T12:39:23.892Z,32.93
2023-02-09T12:41:50.844Z,36.87
2023-02-09T12:44:18.419Z,34.83
2023-02-09T12:46:45.348Z,32.07
2023-02-09T12:49:12.282Z,29.60
2023-02-09T12:51:53.996Z,34.00
2023-02-09T12:54:47.025Z,24.10
2023-02-09T12:57:16.778Z,28.40
2023-02-09T12:59:52.634Z,30.17
2023-02-09T13:02:27.252Z,29.80
2023-02-09T13:05:08.040Z,30.23
2023-02-09T13:07:51.584Z,33.00
2023-02-09T13:10:41.773Z,30.97
2023-02-09T13:13:11.615Z,27.90
2023-02-09T13:16:25.439Z,45.23
2023-02-09T13:19:25.370Z,28.50
2023-02-09T13:22:19.227Z,25.33
2023-02-09T13:25:14.560Z,28.53
2023-02-09T13:27:49.782Z,27.77
2023-02-09T13:30:33.876Z,31.13
2023-02-09T13:33:32.294Z,27.63
2023-02-09T13:36:25.295Z,27.13
2023-02-09T13:38:53.098Z,25.13
2023-02-09T13:41:40.916Z,29.17
2023-02-09T13:44:29.967Z,31.23
2023-02-09T13:47:00.390Z,31.63
2023-02-09T13:49:29.486Z,26.90
2023-02-09T13:52:15.609Z,21.60
2023-02-09T13:54:43.875Z,24.97
2023-02-09T13:57:24.898Z,23.43
2023-02-09T13:59:51.816Z,33.30
2023-02-09T14:02:25.023Z,34.83
2023-02-09T14:04:57.490Z,23.57
2023-02-09T14:07:30.766Z,26.17
2023-02-09T14:10:17.195Z,28.63
2023-02-09T14:12:55.925Z,25.97
2023-02-09T14:15:59.043Z,32.40
2023-02-09T14:18:54.339Z,26.70
2023-02-09T14:21:31.633Z,25.47
2023-02-09T14:23:58.410Z,28.60
2023-02-09T14:26:53.811Z,23.80
2023-02-09T14:29:30.421Z,23.40
2023-02-09T14:32:34.153Z,29.10
2023-02-09T14:35:28.796Z,25.40
2023-02-09T14:38:01.927Z,25.77
2023-02-09T14:40:29.664Z,23.80
2023-02-09T14:43:10.806Z,37.60
2023-02-09T14:45:47.759Z,22.70
2023-02-09T14:48:22.436Z,26.23
2023-02-09T14:50:54.794Z,30.57
2023-02-09T14:53:23.788Z,29.27
2023-02-09T14:55:50.719Z,26.10
2023-02-09T14:58:22.347Z,28.40
2023-02-09T15:00:51.007Z,30.13
2023-02-09T15:03:17.937Z,27.57
2023-02-09T15:05:46.470Z,24.30
2023-02-09T15:08:21.315Z,24.93
2023-02-09T15:10:53.372Z,25.23
2023-02-09T15:13:21.386Z,27.27
2023-02-09T15:15:48.692Z,27.47
2023-02-09T15:18:25.113Z,25.97
2023-02-09T15:20:52.419Z,24.20
2023-02-09T15:23:19.743Z,27.20
2023-02-09T15:25:47.079Z,29.23
2023-02-09T15:28:28.111Z,29.13
2023-02-09T15:30:56.915Z,28.63
2023-02-09T15:33:26.423Z,34.97
2023-02-09T15:35:53.368Z,27.27
2023-02-09T15:38:20.621Z,29.03
2023-02-09T15:41:08.406Z,26.20
2023-02-09T15:43:54.187Z,29.30
2023-02-09T15:46:40.362Z,24.50
2023-02-09T15:49:07.530Z,25.47
2023-02-09T15:51:38.015Z,24.80
2023-02-09T15:54:17.265Z,34.83
2023-02-09T15:56:44.233Z,25.70
2023-02-09T15:59:21.358Z,23.27
2023-02-09T16:01:49.170Z,22.33
2023-02-09T16:04:16.427Z,25.47
2023-02-09T16:06:49.752Z,29.93
2023-02-09T16:09:23.584Z,25.73
2023-02-09T16:11:50.532Z,27.87
2023-02-09T16:14:20.763Z,25.50
2023-02-09T16:16:48.362Z,24.07
2023-02-09T16:19:16.774Z,31.77
2023-02-09T16:21:49.138Z,25.63
2023-02-09T16:24:29.245Z,26.23
2023-02-09T16:26:57.772Z,24.13
2023-02-09T16:29:25.892Z,23.10
2023-02-09T16:31:52.917Z,26.90
2023-02-09T16:34:19.832Z,23.23
2023-02-09T16:36:48.638Z,27.50
2023-02-09T16:39:21.134Z,21.90
2023-02-09T16:41:49.762Z,22.87
2023-02-09T16:44:20.836Z,22.83
2023-02-09T16:46:50.902Z,25.20
2023-02-09T16:49:43.283Z,26.80
2023-02-09T16:52:21.828Z,20.10
2023-02-09T16:54:55.152Z,28.23
2023-02-09T16:57:23.552Z,21.10
2023-02-09T16:59:51.910Z,26.87
2023-02-09T17:02:43.834Z,25.30
2023-02-09T17:05:34.903Z,28.43
2023-02-09T17:08:07.847Z,28.53
2023-02-09T17:10:35.352Z,24.10
2023-02-09T17:13:04.589Z,27.17
2023-02-09T17:15:44.387Z,23.90
2023-02-09T17:18:23.816Z,26.30
2023-02-09T17:21:19.144Z,30.90
2023-02-09T17:23:46.030Z,26.13
2023-02-09T17:26:13.779Z,22.33
2023-02-09T17:28:43.047Z,33.70
2023-02-09T17:31:20.876Z,25.43
2023-02-09T17:33:52.613Z,26.70
2023-02-09T17:36:28.899Z,27.10
2023-02-09T17:39:00.174Z,23.07
2023-02-09T17:41:43.147Z,31.70
2023-02-09T17:44:39.188Z,30.30
2023-02-09T17:47:18.013Z,29.50
2023-02-09T17:49:46.473Z,27.77
2023-02-09T17:52:20.078Z,27.17
2023-02-09T17:54:49.368Z,26.77
2023-02-09T17:57:17.876Z,27.20
2023-02-09T17:59:45.986Z,24.50
2023-02-09T18:02:16.722Z,28.67
2023-02-09T18:04:43.851Z,28.57
2023-02-09T18:07:11.418Z,28.57
2023-02-09T18:09:38.332Z,23.83
2023-02-09T18:12:13.826Z,28.00
2023-02-09T18:14:40.719Z,23.00
2023-02-09T18:17:07.662Z,22.87
2023-02-09T18:19:34.573Z,38.30
2023-02-09T18:22:02.953Z,33.60
2023-02-09T18:24:33.654Z,27.10
2023-02-09T18:27:00.701Z,23.73
2023-02-09T18:29:30.033Z,27.10
2023-02-09T18:32:02.250Z,29.87
2023-02-09T18:34:29.353Z,28.73
2023-02-09T18:36:56.368Z,31.50
2023-02-09T18:39:23.270Z,21.50
2023-02-09T18:41:54.553Z,25.70
2023-02-09T18:44:29.006Z,23.87
2023-02-09T18:46:57.682Z,25.50
2023-02-09T18:49:24.816Z,26.87
2023-02-09T18:51:52.245Z,21.90
2023-02-09T18:54:19.925Z,25.10
2023-02-09T18:56:47.527Z,27.63
2023-02-09T18:59:17.716Z,21.97
2023-02-09T19:01:45.184Z,23.83
2023-02-09T19:04:13.058Z,24.47
2023-02-09T19:06:40.043Z,29.43
2023-02-09T19:09:06.943Z,25.93
2023-02-09T19:11:33.906Z,23.93
2023-02-09T19:14:19.084Z,24.33
2023-02-09T19:16:46.009Z,31.23
2023-02-09T19:19:13.415Z,23.57
2023-02-09T19:21:40.313Z,37.47
2023-02-09T19:24:07.270Z,25.40
2023-02-09T19:26:34.161Z,27.03
2023-02-09T19:29:01.084Z,25.33
2023-02-09T19:31:28.041Z,27.63
2023-02-09T19:33:56.604Z,24.00
2023-02-09T19:36:25.157Z,28.27
2023-02-09T19:38:52.052Z,32.37
2023-02-09T19:41:20.452Z,34.03
2023-02-09T19:43:47.381Z,26.57
2023-02-09T19:46:14.330Z,28.90
2023-02-09T19:48:41.667Z,29.00
2023-02-09T19:51:08.935Z,26.93
2023-02-09T19:53:36.881Z,27.00
2023-02-09T19:56:03.910Z,26.53
2023-02-09T19:58:31.045Z,26.27
2023-02-09T20:00:58.006Z,28.10
2023-02-09T20:03:25.289Z,25.77
2023-02-09T20:05:52.325Z,28.20
2023-02-09T20:08:20.340Z,28.17
2023-02-09T20:10:47.774Z,28.43
2023-02-09T20:13:15.755Z,29.40
2023-02-09T20:15:43.798Z,26.77
2023-02-09T20:18:12.633Z,38.73
2023-02-09T20:20:42.086Z,28.63
2023-02-09T20:23:10.275Z,34.67
2023-02-09T20:25:41.413Z,29.60
2023-02-09T20:28:08.759Z,26.03
2023-02-09T20:30:35.659Z,28.47
2023-02-09T20:33:02.564Z,29.43
2023-02-09T20:35:29.508Z,28.60
2023-02-09T20:37:56.429Z,32.27
2023-02-09T20:40:23.841Z,32.97
2023-02-09T20:43:09.238Z,31.07
2023-02-09T20:45:54.785Z,32.30
2023-02-09T20:48:21.720Z,32.90
2023-02-09T20:50:49.115Z,33.30
2023-02-09T20:53:16.157Z,28.27
2023-02-09T20:55:43.338Z,29.17
2023-02-09T20:58:13.447Z,31.23
2023-02-09T21:00:42.452Z,28.40
2023-02-09T21:03:09.571Z,28.60
2023-02-09T21:05:36.465Z,30.57
2023-02-09T21:08:04.542Z,30.90
2023-02-09T21:10:35.687Z,29.80
2023-02-09T21:13:07.523Z,29.30
2023-02-09T21:15:39.205Z,27.53
2023-02-09T21:18:06.783Z,29.63
2023-02-09T21:20:34.973Z,29.90
2023-02-09T21:23:02.007Z,30.57
2023-02-09T21:25:28.954Z,33.23
2023-02-09T21:27:56.049Z,30.00
2023-02-09T21:30:23.089Z,29.87
2023-02-09T21:32:49.971Z,30.40
2023-02-09T21:35:17.023Z,29.30
2023-02-09T21:37:44.505Z,33.87
2023-02-09T21:40:12.956Z,29.60
2023-02-09T21:42:40.987Z,36.50
2023-02-09T21:45:08.675Z,34.53
2023-02-09T21:47:38.566Z,25.97
2023-02-09T21:50:08.755Z,29.87
2023-02-09T21:52:35.935Z,31.60
2023-02-09T21:55:03.671Z,26.10
2023-02-09T21:57:30.676Z,31.57
2023-02-09T21:59:58.972Z,30.27
2023-02-09T22:02:27.414Z,33.93
2023-02-09T22:04:54.404Z,31.90
2023-02-09T22:07:21.321Z,32.80
2023-02-09T22:09:48.208Z,32.00
2023-02-09T22:12:15.086Z,36.33
2023-02-09T22:14:41.973Z,28.70
2023-02-09T22:17:08.829Z,41.10
2023-02-09T22:19:36.333Z,37.60
2023-02-09T22:22:04.103Z,32.93
2023-02-09T22:24:34.652Z,32.03
2023-02-09T22:27:02.767Z,32.10
2023-02-09T22:29:29.943Z,37.93
2023-02-09T22:31:58.191Z,33.63
2023-02-09T22:34:25.274Z,31.87
2023-02-09T22:36:53.133Z,30.87
2023-02-09T22:39:20.707Z,32.77
2023-02-09T22:41:48.373Z,32.87
2023-02-09T22:44:16.860Z,37.10
2023-02-09T22:46:45.341Z,33.63
2023-02-09T22:49:20.720Z,30.97
2023-02-09T22:51:49.291Z,28.57
2023-02-09T22:54:18.622Z,33.83
2023-02-09T22:56:45.564Z,35.97
2023-02-09T22:59:14.271Z,33.20
2023-02-09T23:01:42.105Z,32.00
2023-02-09T23:04:09.413Z,32.60
2023-02-09T23:06:36.317Z,32.90
2023-02-09T23:09:07.313Z,43.10
2023-02-09T23:11:35.686Z,32.17
2023-02-09T23:14:08.984Z,35.30
2023-02-09T23:16:37.167Z,39.33
2023-02-09T23:19:07.640Z,45.47
2023-02-09T23:21:39.336Z,36.27
2023-02-09T23:24:07.430Z,31.43
2023-02-09T23:26:35.084Z,42.70
2023-02-09T23:29:05.147Z,34.40
2023-02-09T23:31:32.361Z,33.30
2023-02-09T23:33:59.596Z,40.27
2023-02-09T23:36:30.744Z,42.53
2023-02-09T23:39:05.041Z,36.53
2023-02-09T23:41:32.867Z,42.67
2023-02-09T23:44:01.414Z,43.00
2023-02-09T23:46:29.181Z,48.53
2023-02-09T23:48:57.189Z,45.90
2023-02-09T23:51:33.710Z,38.77
2023-02-09T23:54:04.747Z,50.57
2023-02-09T23:56:36.781Z,42.13
2023-02-09T23:59:12.951Z,51.03
